Česky Dansk Deutsch English Español Suomi Français Magyar Italiano Nederlands norsk Polski Português svenska Türkçe

 

Het Weer

Siauliai Intl./Mil. (Litouwen)

00:20, 22 augustus 2016 (GMT)

NWNNE
WE
SWSSE
Home            
Siauliai Intl./Mil. Kaunas Riga International Airport Riga Palanga Intl. Liepaja International Airport Vilnius Ventspils Kaliningrad/Khrabrovo Airport Grodno Kuressaare Parnu Tartu/Ulenurme Kardla Minsk Loshitsa / Minsk International 1 Gdansk-Rebiechowo Visby Flygplats Tallinn Brest Slupsk Vitebsk Warszawa-Okecie

Om een weerknop op uw website of weblog te plaatsen, copieer onderstaande code en plak die in uw pagina. In het eerste vakje staat HTML-code, in het tweede vakje UBB-code.


Add to Google

Details

Wind speed:3 bf, 10 kn, 5.1 m/s, 11.5 miles/h, 18.5 km/h
Wind direction:SSE, 160°
Temperature:18°C, 64°F
Dew-point:18°C, 64°F
Atmospheric pressure:1017 hPa, 762.8 mmHg, 30.03 inHg, 1.004 atm
Relative humidity:100.0 %
METAR:EYSA 220020Z AUTO 16010KT 9999NDV NSC 18/18 Q1017

Snelkoppelingen

Actuele weersinformatie van de hele wereld. Voeg locaties toe met het plus (+) symbool. Deze snelkoppelingen kunnen worden toegevoegd aan Google.

Lid van de Technetium groep

website free tracking
StatCounter NetStat W3C Validator

24-11-2020 01:30:38
astro.technetium.be money.technetium.be phote.technetium.be tafeltennistafel.technetium.be www.ligfiets.net